createdAt,value
2022-08-03T00:01:28.775Z,14.90
2022-08-03T00:03:55.867Z,14.90
2022-08-03T00:06:23.088Z,14.80
2022-08-03T00:08:50.062Z,14.80
2022-08-03T00:11:17.082Z,14.80
2022-08-03T00:13:44.237Z,14.70
2022-08-03T00:16:11.782Z,14.60
2022-08-03T00:18:38.951Z,14.60
2022-08-03T00:21:06.517Z,14.50
2022-08-03T00:23:52.363Z,14.50
2022-08-03T00:26:20.887Z,14.50
2022-08-03T00:28:48.602Z,14.40
2022-08-03T00:31:15.859Z,14.40
2022-08-03T00:33:59.948Z,14.40
2022-08-03T00:36:30.392Z,14.30
2022-08-03T00:38:57.519Z,14.10
2022-08-03T00:41:24.646Z,14.10
2022-08-03T00:43:51.736Z,14.10
2022-08-03T00:46:21.718Z,14.00
2022-08-03T00:48:53.243Z,13.90
2022-08-03T00:51:21.803Z,13.90
2022-08-03T00:53:49.948Z,13.90
2022-08-03T00:56:17.263Z,13.80
2022-08-03T00:58:46.092Z,13.70
2022-08-03T01:01:14.116Z,13.60
2022-08-03T01:03:41.766Z,13.60
2022-08-03T01:06:18.805Z,13.50
2022-08-03T01:09:16.784Z,13.50
2022-08-03T01:12:01.092Z,13.50
2022-08-03T01:14:38.575Z,13.50
2022-08-03T01:17:26.235Z,13.40
2022-08-03T01:19:59.150Z,13.50
2022-08-03T01:22:45.038Z,13.40
2022-08-03T01:25:47.085Z,13.30
2022-08-03T01:29:08.540Z,13.20
2022-08-03T01:32:58.564Z,13.10
2022-08-03T01:35:02.392Z,13.10
2022-08-03T01:37:38.717Z,13.00
2022-08-03T01:40:08.072Z,13.00
2022-08-03T01:42:38.729Z,13.00
2022-08-03T01:45:08.028Z,13.00
2022-08-03T01:47:35.699Z,13.00
2022-08-03T01:50:03.867Z,12.90
2022-08-03T01:52:32.597Z,12.90
2022-08-03T01:55:02.012Z,12.90
2022-08-03T01:57:30.796Z,12.90
2022-08-03T02:00:01.951Z,12.90
2022-08-03T02:02:33.966Z,13.00
2022-08-03T02:05:03.331Z,12.90
2022-08-03T02:07:33.039Z,12.90
2022-08-03T02:10:02.867Z,12.90
2022-08-03T02:12:32.542Z,13.00
2022-08-03T02:15:00.936Z,13.00
2022-08-03T02:17:39.210Z,13.10
2022-08-03T02:20:09.456Z,13.20
2022-08-03T02:22:39.250Z,13.20
2022-08-03T02:25:12.004Z,13.20
2022-08-03T02:27:47.337Z,13.20
2022-08-03T02:30:14.598Z,13.10
2022-08-03T02:32:47.187Z,13.10
2022-08-03T02:35:17.191Z,13.20
2022-08-03T02:37:49.734Z,13.20
2022-08-03T02:40:19.203Z,13.20
2022-08-03T02:42:49.728Z,13.20
2022-08-03T02:45:18.432Z,13.20
2022-08-03T02:47:53.387Z,13.20
2022-08-03T02:50:23.594Z,13.20
2022-08-03T02:52:52.403Z,13.20
2022-08-03T02:55:22.757Z,13.40
2022-08-03T02:57:51.854Z,13.40
2022-08-03T03:00:27.940Z,13.40
2022-08-03T03:03:00.717Z,13.40
2022-08-03T03:05:54.984Z,13.40
2022-08-03T03:08:20.696Z,13.50
2022-08-03T03:10:55.429Z,13.50
2022-08-03T03:13:23.420Z,13.50
2022-08-03T03:15:52.278Z,13.50
2022-08-03T03:18:22.735Z,13.50
2022-08-03T03:20:51.947Z,13.50
2022-08-03T03:23:22.076Z,13.50
2022-08-03T03:25:49.765Z,13.50
2022-08-03T03:28:17.169Z,13.60
2022-08-03T03:30:44.568Z,13.70
2022-08-03T03:33:20.322Z,13.80
2022-08-03T03:35:47.776Z,13.80
2022-08-03T03:38:14.930Z,13.80
2022-08-03T03:40:42.491Z,13.90
2022-08-03T03:43:11.032Z,13.90
2022-08-03T03:45:40.773Z,14.00
2022-08-03T03:48:08.207Z,14.20
2022-08-03T03:50:37.119Z,14.40
2022-08-03T03:53:04.904Z,14.50
2022-08-03T03:55:31.972Z,14.60
2022-08-03T03:57:59.674Z,14.70
2022-08-03T04:00:26.728Z,14.70
2022-08-03T04:02:53.745Z,14.90
2022-08-03T04:05:42.890Z,15.10
2022-08-03T04:08:32.411Z,15.20
2022-08-03T04:11:11.047Z,15.30
2022-08-03T04:13:45.196Z,15.40
2022-08-03T04:16:14.667Z,15.30
2022-08-03T04:18:44.793Z,15.50
2022-08-03T04:21:14.331Z,15.60
2022-08-03T04:23:46.103Z,15.90
2022-08-03T04:26:16.715Z,16.00
2022-08-03T04:28:50.664Z,16.10
2022-08-03T04:31:20.583Z,15.90
2022-08-03T04:33:48.772Z,16.00
2022-08-03T04:36:21.513Z,15.90
2022-08-03T04:39:10.796Z,15.90
2022-08-03T04:42:07.050Z,15.70
2022-08-03T04:44:28.941Z,15.50
2022-08-03T04:46:57.154Z,15.40
2022-08-03T04:49:24.577Z,15.20
2022-08-03T04:51:52.941Z,15.10
2022-08-03T04:54:19.882Z,15.00
2022-08-03T04:56:47.783Z,14.80
2022-08-03T04:59:14.997Z,14.80
2022-08-03T05:01:44.852Z,14.80
2022-08-03T05:04:11.946Z,14.90
2022-08-03T05:06:48.259Z,14.90
2022-08-03T05:09:39.552Z,14.90
2022-08-03T05:12:10.497Z,14.90
2022-08-03T05:14:38.917Z,15.00
2022-08-03T05:17:06.473Z,15.00
2022-08-03T05:19:33.668Z,15.10
2022-08-03T05:22:00.737Z,15.20
2022-08-03T05:24:27.753Z,15.20
2022-08-03T05:26:54.647Z,15.40
2022-08-03T05:29:21.557Z,15.50
2022-08-03T05:31:48.576Z,15.80
2022-08-03T05:34:15.550Z,16.40
2022-08-03T05:36:42.470Z,16.70
2022-08-03T05:39:09.549Z,17.10
2022-08-03T05:41:37.576Z,17.50
2022-08-03T05:44:04.962Z,17.90
2022-08-03T05:46:32.304Z,18.30
2022-08-03T05:48:59.488Z,18.60
2022-08-03T05:51:28.689Z,19.00
2022-08-03T05:53:56.007Z,19.50
2022-08-03T05:56:25.359Z,20.20
2022-08-03T05:58:53.102Z,20.40
2022-08-03T06:01:24.351Z,20.30
2022-08-03T06:03:52.521Z,20.30
2022-08-03T06:06:20.298Z,20.60
2022-08-03T06:08:48.980Z,21.40
2022-08-03T06:11:16.798Z,22.00
2022-08-03T06:13:44.576Z,22.30
2022-08-03T06:16:12.274Z,22.10
2022-08-03T06:18:40.614Z,22.90
2022-08-03T06:21:14.041Z,23.20
2022-08-03T06:23:54.683Z,23.50
2022-08-03T06:26:26.854Z,24.10
2022-08-03T06:28:57.409Z,24.30
2022-08-03T06:31:33.226Z,25.00
2022-08-03T06:34:34.394Z,26.10
2022-08-03T06:36:52.909Z,26.90
2022-08-03T06:39:20.767Z,28.00
2022-08-03T06:41:51.058Z,27.40
2022-08-03T06:44:18.093Z,27.20
2022-08-03T06:46:45.409Z,28.10
2022-08-03T06:49:12.699Z,28.70
2022-08-03T06:52:05.826Z,29.60
2022-08-03T06:54:26.772Z,29.40
2022-08-03T06:56:54.867Z,28.20
2022-08-03T07:00:09.402Z,27.70
2022-08-03T07:02:10.507Z,27.60
2022-08-03T07:04:38.165Z,27.20
2022-08-03T07:07:05.154Z,26.40
2022-08-03T07:09:32.452Z,26.00
2022-08-03T07:11:59.570Z,26.10
2022-08-03T07:14:26.565Z,26.10
2022-08-03T07:16:53.849Z,25.90
2022-08-03T07:19:20.708Z,25.80
2022-08-03T07:21:47.861Z,25.50
2022-08-03T07:24:15.037Z,25.90
2022-08-03T07:26:42.162Z,26.00
2022-08-03T07:29:11.773Z,25.90
2022-08-03T07:31:42.784Z,25.30
2022-08-03T07:34:10.353Z,25.60
2022-08-03T07:36:37.532Z,26.20
2022-08-03T07:39:15.912Z,26.30
2022-08-03T07:41:45.602Z,26.30
2022-08-03T07:44:13.075Z,25.60
2022-08-03T07:46:41.072Z,26.10
2022-08-03T07:49:08.164Z,25.70
2022-08-03T07:51:36.460Z,25.20
2022-08-03T07:54:04.143Z,25.00
2022-08-03T07:56:31.876Z,25.50
2022-08-03T07:58:59.862Z,25.70
2022-08-03T08:01:27.273Z,25.60
2022-08-03T08:03:54.689Z,26.10
2022-08-03T08:06:22.265Z,26.80
2022-08-03T08:08:49.484Z,27.10
2022-08-03T08:11:16.886Z,26.90
2022-08-03T08:13:44.017Z,26.20
2022-08-03T08:16:11.662Z,26.00
2022-08-03T08:18:38.690Z,25.90
2022-08-03T08:21:05.709Z,25.90
2022-08-03T08:23:43.539Z,26.00
2022-08-03T08:26:13.062Z,25.80
2022-08-03T08:28:40.285Z,26.00
2022-08-03T08:31:08.065Z,25.40
2022-08-03T08:34:04.999Z,24.70
2022-08-03T08:36:24.212Z,24.50
2022-08-03T08:38:51.849Z,24.50
2022-08-03T08:41:20.263Z,24.70
2022-08-03T08:43:47.749Z,24.50
2022-08-03T08:46:23.383Z,24.30
2022-08-03T08:48:52.393Z,24.20
2022-08-03T08:51:21.591Z,24.60
2022-08-03T08:53:52.487Z,24.50
2022-08-03T08:56:22.657Z,25.40
2022-08-03T08:58:58.203Z,26.60
2022-08-03T09:01:25.658Z,27.10
2022-08-03T09:03:54.258Z,28.60
2022-08-03T09:06:30.885Z,30.90
2022-08-03T09:08:58.326Z,31.50
2022-08-03T09:11:52.551Z,30.50
2022-08-03T09:14:37.270Z,32.60
2022-08-03T09:17:04.243Z,33.40
2022-08-03T09:19:32.577Z,33.20
2022-08-03T09:22:09.633Z,33.60
2022-08-03T09:24:41.627Z,33.50
2022-08-03T09:27:13.711Z,34.20
2022-08-03T09:29:40.938Z,32.70
2022-08-03T09:32:07.987Z,32.90
2022-08-03T09:34:35.330Z,33.80
2022-08-03T09:37:02.352Z,34.30
2022-08-03T09:39:40.665Z,33.30
2022-08-03T09:42:10.727Z,32.40
2022-08-03T09:44:43.391Z,31.50
2022-08-03T09:47:12.258Z,32.10
2022-08-03T09:49:56.167Z,32.40
2022-08-03T09:52:39.058Z,33.00
2022-08-03T09:56:32.534Z,33.50
2022-08-03T09:58:09.530Z,34.70
2022-08-03T10:01:00.509Z,35.30
2022-08-03T10:03:30.118Z,35.30
2022-08-03T10:05:59.747Z,34.70
2022-08-03T10:08:27.757Z,34.30
2022-08-03T10:10:54.851Z,34.60
2022-08-03T10:13:23.019Z,34.60
2022-08-03T10:16:22.327Z,33.70
2022-08-03T10:18:37.996Z,33.80
2022-08-03T10:21:10.477Z,34.00
2022-08-03T10:23:38.815Z,34.70
2022-08-03T10:26:08.194Z,34.10
2022-08-03T10:28:42.829Z,33.90
2022-08-03T10:31:14.401Z,34.60
2022-08-03T10:33:52.870Z,35.40
2022-08-03T10:36:24.409Z,35.10
2022-08-03T10:38:53.366Z,35.20
2022-08-03T10:41:22.010Z,34.80
2022-08-03T10:44:10.126Z,34.50
2022-08-03T10:46:44.528Z,34.40
2022-08-03T10:49:16.891Z,34.20
2022-08-03T10:52:01.416Z,34.20
2022-08-03T10:54:59.591Z,34.10
2022-08-03T10:57:52.569Z,33.10
2022-08-03T11:00:27.983Z,33.20
2022-08-03T11:03:11.441Z,33.20
2022-08-03T11:05:47.086Z,33.30
2022-08-03T11:08:30.807Z,32.90
2022-08-03T11:11:03.020Z,32.90
2022-08-03T11:13:33.564Z,32.40
2022-08-03T11:16:06.144Z,31.80
2022-08-03T11:18:34.206Z,32.90
2022-08-03T11:21:01.275Z,33.10
2022-08-03T11:24:03.994Z,32.90
2022-08-03T11:26:33.438Z,33.10
2022-08-03T11:29:29.901Z,33.90
2022-08-03T11:31:57.552Z,33.70
2022-08-03T11:34:25.119Z,33.90
2022-08-03T11:37:22.319Z,33.90
2022-08-03T11:39:51.928Z,33.40
2022-08-03T11:42:24.994Z,34.00
2022-08-03T11:44:54.447Z,33.40
2022-08-03T11:47:22.738Z,33.80
2022-08-03T11:49:51.894Z,33.20
2022-08-03T11:52:26.743Z,33.10
2022-08-03T11:54:56.934Z,33.00
2022-08-03T11:59:02.731Z,32.70
2022-08-03T12:00:25.939Z,33.10
2022-08-03T12:03:12.504Z,33.90
2022-08-03T12:05:51.019Z,34.10
2022-08-03T12:08:28.246Z,34.00
2022-08-03T12:10:57.780Z,34.30
2022-08-03T12:14:45.747Z,34.60
2022-08-03T12:16:24.846Z,35.30
2022-08-03T12:19:03.523Z,34.90
2022-08-03T12:21:30.740Z,34.30
2022-08-03T12:24:00.562Z,33.90
2022-08-03T12:26:29.885Z,33.30
2022-08-03T12:28:57.628Z,33.10
2022-08-03T12:31:25.198Z,32.80
2022-08-03T12:34:08.346Z,33.40
2022-08-03T12:36:36.621Z,33.00
2022-08-03T12:39:09.007Z,33.40
2022-08-03T12:41:38.343Z,33.30
2022-08-03T12:44:07.535Z,33.80
2022-08-03T12:46:40.001Z,33.80
2022-08-03T12:49:19.254Z,32.70
2022-08-03T12:51:46.281Z,32.30
2022-08-03T12:54:18.195Z,31.10
2022-08-03T12:57:02.744Z,29.80
2022-08-03T12:59:41.163Z,28.80
2022-08-03T13:02:19.695Z,28.20
2022-08-03T13:04:52.322Z,27.60
2022-08-03T13:07:20.319Z,27.50
2022-08-03T13:09:54.614Z,27.20
2022-08-03T13:12:26.713Z,27.10
2022-08-03T13:14:56.546Z,27.10
2022-08-03T13:17:24.007Z,26.90
2022-08-03T13:19:51.936Z,26.80
2022-08-03T13:22:23.471Z,26.60
2022-08-03T13:24:58.943Z,26.70
2022-08-03T13:28:03.347Z,26.80
2022-08-03T13:30:16.204Z,26.70
2022-08-03T13:32:59.928Z,26.60
2022-08-03T13:35:27.340Z,26.60
2022-08-03T13:37:54.280Z,26.60
2022-08-03T13:40:23.682Z,26.70
2022-08-03T13:42:57.189Z,26.80
2022-08-03T13:45:24.481Z,26.80
2022-08-03T13:47:51.937Z,26.70
2022-08-03T13:50:19.251Z,26.70
2022-08-03T13:52:49.141Z,26.60
2022-08-03T13:55:16.451Z,26.70
2022-08-03T13:58:04.319Z,26.60
2022-08-03T14:00:35.437Z,26.50
2022-08-03T14:03:09.542Z,26.50
2022-08-03T14:05:39.798Z,26.50
2022-08-03T14:08:07.614Z,26.50
2022-08-03T14:10:38.539Z,26.40
2022-08-03T14:13:06.535Z,26.40
2022-08-03T14:15:38.264Z,26.30
2022-08-03T14:18:15.550Z,26.20
2022-08-03T14:20:50.088Z,26.30
2022-08-03T14:23:18.940Z,26.30
2022-08-03T14:25:51.650Z,26.30
2022-08-03T14:28:22.898Z,26.40
2022-08-03T14:30:56.100Z,26.40
2022-08-03T14:33:23.749Z,26.50
2022-08-03T14:35:51.469Z,26.50
2022-08-03T14:38:19.294Z,26.40
2022-08-03T14:40:46.830Z,26.40
2022-08-03T14:43:14.544Z,26.40
2022-08-03T14:45:41.688Z,26.30
2022-08-03T14:50:34.122Z,26.30
2022-08-03T14:50:56.880Z,26.20
2022-08-03T14:53:24.703Z,26.20
2022-08-03T14:55:53.430Z,26.10
2022-08-03T14:58:22.185Z,26.20
2022-08-03T15:00:51.183Z,26.20
2022-08-03T15:03:23.312Z,26.30
2022-08-03T15:05:56.101Z,26.20
2022-08-03T15:08:25.131Z,26.30
2022-08-03T15:10:53.233Z,26.20
2022-08-03T15:13:20.906Z,26.10
2022-08-03T15:15:49.779Z,26.10
2022-08-03T15:18:16.757Z,26.10
2022-08-03T15:20:45.941Z,26.10
2022-08-03T15:23:15.426Z,26.00
2022-08-03T15:26:29.454Z,26.00
2022-08-03T15:28:32.327Z,26.00
2022-08-03T15:30:59.691Z,26.00
2022-08-03T15:33:27.083Z,25.90
2022-08-03T15:35:54.180Z,25.90
2022-08-03T15:38:25.721Z,25.90
2022-08-03T15:40:59.055Z,25.90
2022-08-03T15:43:26.134Z,25.80
2022-08-03T15:48:40.891Z,25.70
2022-08-03T15:51:09.331Z,25.70
2022-08-03T15:53:37.658Z,25.60
2022-08-03T15:56:10.609Z,25.70
2022-08-03T15:59:03.571Z,25.70
2022-08-03T16:01:28.782Z,25.70
2022-08-03T16:03:56.062Z,25.70
2022-08-03T16:06:29.603Z,25.70
2022-08-03T16:09:03.112Z,25.60
2022-08-03T16:11:31.852Z,25.60
2022-08-03T16:14:13.582Z,25.60
2022-08-03T16:16:50.856Z,25.50
2022-08-03T16:19:18.002Z,25.50
2022-08-03T16:21:48.545Z,25.50
2022-08-03T16:24:17.497Z,25.50
2022-08-03T16:26:54.951Z,25.50
2022-08-03T16:29:22.214Z,25.50
2022-08-03T16:31:51.488Z,25.50
2022-08-03T16:34:20.244Z,25.40
2022-08-03T16:36:47.406Z,25.30
2022-08-03T16:39:19.110Z,25.20
2022-08-03T16:41:53.976Z,25.20
2022-08-03T16:44:31.068Z,25.20
2022-08-03T16:46:59.536Z,25.10
2022-08-03T16:49:54.065Z,25.10
2022-08-03T16:52:16.802Z,25.00
2022-08-03T16:54:53.195Z,25.00
2022-08-03T16:57:55.660Z,24.90
2022-08-03T17:00:33.815Z,24.90
2022-08-03T17:03:04.610Z,24.70
2022-08-03T17:05:47.672Z,24.50
2022-08-03T17:08:15.918Z,24.50
2022-08-03T17:10:46.134Z,24.30
2022-08-03T17:13:21.749Z,24.20
2022-08-03T17:15:58.240Z,24.10
2022-08-03T17:18:32.473Z,24.00
2022-08-03T17:21:03.664Z,23.90
2022-08-03T17:23:50.778Z,23.80
2022-08-03T17:26:22.238Z,23.60
2022-08-03T17:28:57.904Z,23.50
2022-08-03T17:31:31.290Z,23.30
2022-08-03T17:34:04.438Z,23.10
2022-08-03T17:37:02.780Z,23.10
2022-08-03T17:39:48.310Z,23.00
2022-08-03T17:42:30.009Z,22.80
2022-08-03T17:47:57.811Z,22.70
2022-08-03T17:50:35.332Z,22.50
2022-08-03T17:53:15.372Z,22.20
2022-08-03T17:56:04.352Z,22.10
2022-08-03T17:58:58.135Z,21.90
2022-08-03T18:02:22.295Z,21.70
2022-08-03T18:05:16.235Z,21.60
2022-08-03T18:07:59.547Z,21.40
2022-08-03T18:10:33.746Z,21.30
2022-08-03T18:13:10.872Z,21.10
2022-08-03T18:15:43.958Z,21.10
2022-08-03T18:18:13.819Z,21.00
2022-08-03T18:20:45.589Z,20.80
2022-08-03T18:23:20.442Z,20.70
2022-08-03T18:25:58.036Z,20.60
2022-08-03T18:28:30.901Z,20.50
2022-08-03T18:30:58.609Z,20.40
2022-08-03T18:34:16.483Z,20.30
2022-08-03T18:36:21.955Z,20.20
2022-08-03T18:38:59.804Z,20.20
2022-08-03T18:41:33.774Z,20.10
2022-08-03T18:44:37.319Z,20.00
2022-08-03T18:47:50.702Z,19.80
2022-08-03T18:50:50.199Z,19.80
2022-08-03T18:54:03.668Z,19.60
2022-08-03T18:56:32.735Z,19.60
2022-08-03T18:59:10.576Z,19.50
2022-08-03T19:02:00.224Z,19.30
2022-08-03T19:04:53.759Z,19.20
2022-08-03T19:07:26.571Z,19.20
2022-08-03T19:10:03.824Z,19.10
2022-08-03T19:12:38.619Z,19.20
2022-08-03T19:15:15.813Z,19.00
2022-08-03T19:18:07.317Z,18.90
2022-08-03T19:20:39.388Z,18.80
2022-08-03T19:23:07.738Z,18.80
2022-08-03T19:25:42.192Z,18.70
2022-08-03T19:28:09.683Z,18.60
2022-08-03T19:30:40.471Z,18.50
2022-08-03T19:33:10.362Z,18.50
2022-08-03T19:35:55.051Z,18.40
2022-08-03T19:38:28.300Z,18.40
2022-08-03T19:41:04.565Z,18.40
2022-08-03T19:43:52.543Z,18.30
2022-08-03T19:46:31.742Z,18.30
2022-08-03T19:49:14.560Z,18.20
2022-08-03T19:52:01.713Z,18.20
2022-08-03T19:54:53.416Z,18.20
2022-08-03T19:57:24.738Z,18.20
2022-08-03T19:59:53.913Z,18.20
2022-08-03T20:02:25.747Z,18.00
2022-08-03T20:05:00.021Z,17.90
2022-08-03T20:07:30.480Z,17.90
2022-08-03T20:09:59.737Z,18.00
2022-08-03T20:12:31.293Z,17.80
2022-08-03T20:15:02.263Z,17.80
2022-08-03T20:17:56.748Z,17.70
2022-08-03T20:20:21.644Z,17.60
2022-08-03T20:22:57.536Z,17.50
2022-08-03T20:25:38.125Z,17.40
2022-08-03T20:28:14.290Z,17.40
2022-08-03T20:30:47.391Z,17.30
2022-08-03T20:33:18.794Z,17.20
2022-08-03T20:35:49.276Z,17.20
2022-08-03T20:38:18.812Z,17.20
2022-08-03T20:40:47.543Z,17.10
2022-08-03T20:43:15.969Z,17.10
2022-08-03T20:45:59.762Z,17.00
2022-08-03T20:48:32.321Z,17.00
2022-08-03T20:50:59.763Z,17.00
2022-08-03T20:53:57.422Z,17.00
2022-08-03T20:56:15.834Z,17.10
2022-08-03T20:58:50.492Z,17.10
2022-08-03T21:01:18.204Z,17.00
2022-08-03T21:03:55.845Z,17.00
2022-08-03T21:06:27.939Z,17.10
2022-08-03T21:09:04.232Z,17.00
2022-08-03T21:11:43.142Z,17.00
2022-08-03T21:12:55.019Z,22.80
2022-08-03T21:14:25.332Z,17.10
2022-08-03T21:16:54.571Z,17.00
2022-08-03T21:19:23.170Z,17.00
2022-08-03T21:21:50.808Z,17.00
2022-08-03T21:24:20.246Z,16.90
2022-08-03T21:26:49.418Z,16.80
2022-08-03T21:29:17.116Z,16.80
2022-08-03T21:31:44.449Z,16.70
2022-08-03T21:34:11.731Z,16.60
2022-08-03T21:36:39.119Z,16.60
2022-08-03T21:39:08.853Z,16.50
2022-08-03T21:41:37.779Z,16.40
2022-08-03T21:44:06.120Z,16.40
2022-08-03T21:46:36.547Z,16.40
2022-08-03T21:50:04.748Z,16.40
2022-08-03T21:51:59.645Z,16.30
2022-08-03T21:54:35.209Z,16.30
2022-08-03T21:57:10.634Z,16.20
2022-08-03T21:59:38.682Z,16.20
2022-08-03T22:02:22.626Z,16.20
2022-08-03T22:04:56.420Z,16.20
2022-08-03T22:07:26.965Z,16.20
2022-08-03T22:09:55.983Z,16.20
2022-08-03T22:12:24.987Z,16.20
2022-08-03T22:15:01.268Z,16.20
2022-08-03T22:17:55.037Z,16.30
2022-08-03T22:20:17.556Z,16.30
2022-08-03T22:22:55.208Z,16.20
2022-08-03T22:25:29.524Z,16.10
2022-08-03T22:27:59.055Z,16.10
2022-08-03T22:30:26.231Z,16.00
2022-08-03T22:32:55.000Z,15.90
2022-08-03T22:35:25.440Z,15.90
2022-08-03T22:37:54.598Z,15.90
2022-08-03T22:40:22.028Z,16.00
2022-08-03T22:42:50.577Z,16.00
2022-08-03T22:46:07.013Z,16.10
2022-08-03T22:48:08.046Z,16.00
2022-08-03T22:50:35.679Z,16.20
2022-08-03T22:53:03.213Z,16.20
2022-08-03T22:55:30.137Z,16.30
2022-08-03T22:57:57.093Z,16.30
2022-08-03T23:00:24.958Z,16.40
2022-08-03T23:02:54.243Z,16.40
2022-08-03T23:06:01.610Z,16.40
2022-08-03T23:08:21.058Z,16.30
2022-08-03T23:10:48.770Z,16.40
2022-08-03T23:13:20.209Z,16.40
2022-08-03T23:15:58.276Z,16.50
2022-08-03T23:18:28.722Z,16.40
2022-08-03T23:20:58.947Z,16.40
2022-08-03T23:23:28.502Z,16.40
2022-08-03T23:26:13.248Z,16.40
2022-08-03T23:28:44.981Z,16.30
2022-08-03T23:31:14.875Z,16.30
2022-08-03T23:33:44.922Z,16.20
2022-08-03T23:36:30.591Z,16.20
2022-08-03T23:39:02.305Z,16.10
2022-08-03T23:41:30.977Z,16.10
2022-08-03T23:44:00.880Z,16.20
2022-08-03T23:46:30.412Z,16.10
2022-08-03T23:48:59.112Z,16.10
2022-08-03T23:51:29.087Z,16.00
2022-08-03T23:54:03.771Z,15.90
2022-08-03T23:56:36.431Z,15.90
2022-08-03T23:59:37.224Z,16.00
